Time;durP1;ratioP1;P1;durP2;ratioP2;P2;SDS_P1;SDS_P2;PMS_P1;PMS_P2;Temp;Humidity;BMP_temperature;BMP_pressure;BME280_temperature;BME280_humidity;BME280_pressure;Samples;Min_cycle;Max_cycle;Signal;HPM_P1;HPM_P2
2021/12/11 00:02:11;;;;;;;113.20;48.80;;;;;;;2.35;69.58;97935.63;212608;1327;139470;-59
2021/12/11 00:07:17;;;;;;;112.70;49.30;;;;;;;2.32;69.48;97958.35;213191;1322;138802;-62
2021/12/11 00:12:28;;;;;;;109.10;47.20;;;;;;;2.34;69.56;97968.75;213369;1319;140953;-66
2021/12/11 00:17:33;;;;;;;96.10;44.90;;;;;;;2.38;69.61;97971.39;212683;1322;139490;-57
2021/12/11 00:22:42;;;;;;;102.50;46.60;;;;;;;2.42;69.56;97972.27;212540;1322;140920;-58
2021/12/11 00:27:48;;;;;;;103.30;46.40;;;;;;;2.46;69.75;97971.41;212931;1322;139934;-58
2021/12/11 00:33:05;;;;;;;104.50;48.80;;;;;;;2.47;69.62;97981.13;212347;1325;139729;-58
2021/12/11 00:38:14;;;;;;;105.00;45.90;;;;;;;2.47;69.56;97984.08;212903;1319;140912;-57
2021/12/11 00:43:21;;;;;;;95.10;43.50;;;;;;;2.45;69.59;97987.51;213266;1322;139612;-58
2021/12/11 00:48:26;;;;;;;99.20;45.50;;;;;;;2.41;69.42;97996.10;213047;1319;139685;-57
2021/12/11 00:53:37;;;;;;;99.50;44.60;;;;;;;2.34;69.39;97994.85;213399;1319;138975;-58
2021/12/11 00:58:42;;;;;;;96.60;43.00;;;;;;;2.27;69.32;97997.10;213051;1322;139468;-57
2021/12/11 01:03:54;;;;;;;86.20;39.80;;;;;;;2.27;69.52;97996.41;212755;1325;139549;-58
2021/12/11 01:09:05;;;;;;;84.20;39.20;;;;;;;2.33;69.55;98005.94;212944;1325;139853;-59
2021/12/11 01:14:20;;;;;;;82.20;39.70;;;;;;;2.31;69.38;98043.27;213019;1323;138912;-59
2021/12/11 01:19:25;;;;;;;79.70;37.10;;;;;;;2.35;69.50;98057.81;213088;1326;139036;-58
2021/12/11 01:24:43;;;;;;;74.10;37.20;;;;;;;2.31;69.39;98069.73;212608;1325;139072;-58
2021/12/11 01:29:48;;;;;;;71.60;34.80;;;;;;;2.25;69.46;98069.80;212689;1326;140602;-59
2021/12/11 01:34:53;;;;;;;70.50;35.80;;;;;;;2.20;69.25;98077.55;212824;1320;138772;-60
2021/12/11 01:39:56;;;;;;;71.30;33.90;;;;;;;2.13;69.23;98071.90;212220;1326;139808;-63
2021/12/11 01:45:03;;;;;;;67.70;32.70;;;;;;;2.09;69.41;98067.16;212184;1328;139212;-61
2021/12/11 01:50:20;;;;;;;73.30;33.00;;;;;;;2.06;69.28;98063.30;213139;1322;139800;-59
2021/12/11 01:55:38;;;;;;;73.20;33.30;;;;;;;2.00;69.31;98067.04;212813;1320;139070;-60
2021/12/11 02:00:47;;;;;;;70.00;32.50;;;;;;;2.00;69.38;98077.02;212945;1319;139482;-57
2021/12/11 02:05:51;;;;;;;71.30;32.40;;;;;;;2.00;69.38;98085.38;212264;1328;139338;-60
2021/12/11 02:10:59;;;;;;;68.70;33.20;;;;;;;2.00;69.41;98085.92;213293;1320;138647;-57
2021/12/11 02:16:03;;;;;;;68.50;32.90;;;;;;;2.02;69.53;98084.42;213477;1322;139026;-56
2021/12/11 02:21:12;;;;;;;74.00;33.60;;;;;;;2.02;69.58;98091.77;212823;1319;139926;-57
2021/12/11 02:26:15;;;;;;;70.50;34.00;;;;;;;2.00;69.46;98094.52;213035;1324;138884;-56
2021/12/11 02:31:42;;;;;;;70.30;35.50;;;;;;;1.96;69.45;98098.86;213022;1323;140586;-60
2021/12/11 02:36:53;;;;;;;78.50;36.80;;;;;;;1.93;69.55;98106.72;212580;1322;138741;-64
2021/12/11 02:42:24;;;;;;;74.40;34.00;;;;;;;1.89;69.53;98114.55;213283;1319;138890;-60
2021/12/11 02:47:29;;;;;;;70.20;32.70;;;;;;;1.86;69.43;98120.47;213635;1320;139223;-58
2021/12/11 02:52:41;;;;;;;72.90;32.50;;;;;;;1.80;69.52;98128.42;212317;1326;139362;-58
2021/12/11 02:57:52;;;;;;;71.60;33.70;;;;;;;1.77;69.51;98136.25;212423;1331;139281;-62
2021/12/11 03:03:05;;;;;;;76.00;33.80;;;;;;;1.78;69.55;98134.06;213084;1323;139542;-60
2021/12/11 03:08:13;;;;;;;70.60;35.00;;;;;;;1.79;69.64;98136.83;213060;1320;139477;-59
2021/12/11 03:13:16;;;;;;;76.70;35.20;;;;;;;1.78;69.61;98140.73;212423;1322;178588;-59
2021/12/11 03:18:20;;;;;;;76.60;34.70;;;;;;;1.74;69.59;98144.21;212224;1328;139239;-58
2021/12/11 03:23:23;;;;;;;77.00;35.10;;;;;;;1.68;69.69;98143.95;212829;1320;139257;-57
2021/12/11 03:28:27;;;;;;;79.00;34.70;;;;;;;1.57;69.61;98147.34;212834;1323;139029;-57
2021/12/11 03:33:43;;;;;;;82.60;36.20;;;;;;;1.52;69.75;98150.02;212635;1326;139840;-58
2021/12/11 03:38:52;;;;;;;89.60;38.50;;;;;;;1.48;69.78;98147.90;212806;1322;140236;-60
2021/12/11 03:43:55;;;;;;;94.20;40.10;;;;;;;1.48;69.87;98152.78;212865;1326;139875;-58
2021/12/11 03:49:02;;;;;;;91.50;38.10;;;;;;;1.53;70.04;98160.63;212199;1326;140234;-58
2021/12/11 03:54:10;;;;;;;93.70;39.40;;;;;;;1.56;70.06;98165.07;212911;1328;138758;-60
2021/12/11 03:59:14;;;;;;;90.00;37.40;;;;;;;1.62;70.29;98170.40;212386;1328;138837;-59
2021/12/11 04:04:19;;;;;;;86.80;37.30;;;;;;;1.61;70.06;98173.57;213252;1320;139222;-63
2021/12/11 04:09:23;;;;;;;91.70;38.90;;;;;;;1.56;70.07;98177.09;212831;1320;139154;-57
2021/12/11 04:14:31;;;;;;;101.20;39.90;;;;;;;1.56;70.19;98182.70;213087;1320;139669;-57
2021/12/11 04:19:35;;;;;;;101.00;38.90;;;;;;;1.54;70.34;98181.70;213188;1325;139146;-61
2021/12/11 04:24:40;;;;;;;102.20;40.30;;;;;;;1.53;70.34;98184.20;213454;1322;139400;-57
2021/12/11 04:29:47;;;;;;;98.60;41.20;;;;;;;1.57;70.37;98195.21;212606;1322;139387;-57
2021/12/11 04:34:51;;;;;;;94.10;39.90;;;;;;;1.66;70.57;98210.46;212592;1328;139839;-57
2021/12/11 04:40:02;;;;;;;99.70;42.40;;;;;;;1.74;70.56;98219.23;212115;1328;139337;-54
2021/12/11 04:45:11;;;;;;;101.80;40.90;;;;;;;1.80;70.62;98224.91;212950;1322;139136;-61
2021/12/11 04:50:30;;;;;;;96.80;38.90;;;;;;;1.84;70.44;98227.23;212461;1320;139526;-57
2021/12/11 04:55:55;;;;;;;92.10;38.30;;;;;;;1.81;70.29;98237.50;212383;1328;139188;-60
2021/12/11 05:01:13;;;;;;;89.60;38.70;;;;;;;1.77;70.26;98245.16;212996;1325;139294;-60
2021/12/11 05:06:44;;;;;;;93.20;38.20;;;;;;;1.72;70.41;98244.13;212600;1327;139584;-59
2021/12/11 05:12:05;;;;;;;89.50;39.60;;;;;;;1.70;70.44;98252.08;212470;1328;138760;-58
2021/12/11 05:17:09;;;;;;;89.60;38.00;;;;;;;1.76;70.47;98260.77;213067;1322;140624;-57
2021/12/11 05:22:14;;;;;;;82.00;36.90;;;;;;;1.80;70.31;98266.55;212422;1329;139947;-57
2021/12/11 05:27:18;;;;;;;74.20;35.90;;;;;;;1.79;70.37;98285.27;213370;1319;139045;-58
2021/12/11 05:32:24;;;;;;;85.50;38.60;;;;;;;1.78;70.22;98298.11;212074;1329;139362;-56
2021/12/11 05:37:28;;;;;;;76.80;35.30;;;;;;;1.78;70.25;98298.81;212923;1324;139079;-57
2021/12/11 05:42:31;;;;;;;80.70;35.10;;;;;;;1.76;70.32;98297.14;212536;1322;138754;-59
2021/12/11 05:47:34;;;;;;;77.10;35.50;;;;;;;1.72;70.23;98300.61;212129;1329;139727;-58
2021/12/11 05:52:37;;;;;;;76.90;35.70;;;;;;;1.67;70.04;98313.05;212423;1326;139037;-61
2021/12/11 05:57:49;;;;;;;77.30;34.90;;;;;;;1.67;70.19;98315.85;212366;1326;139368;-56
2021/12/11 06:02:53;;;;;;;72.30;34.30;;;;;;;1.69;70.24;98326.08;212190;1326;140328;-51
2021/12/11 06:07:57;;;;;;;78.00;36.60;;;;;;;1.77;70.46;98327.71;211978;1330;138563;-57
2021/12/11 06:13:02;;;;;;;75.80;35.30;;;;;;;1.83;70.35;98329.38;212756;1322;139502;-58
2021/12/11 06:18:07;;;;;;;78.90;36.00;;;;;;;1.83;70.19;98338.83;213506;1328;138879;-57
2021/12/11 06:23:10;;;;;;;84.80;36.50;;;;;;;1.85;70.20;98346.64;212400;1329;139433;-57
2021/12/11 06:28:13;;;;;;;75.30;36.20;;;;;;;1.83;70.13;98355.95;212606;1326;139464;-59
2021/12/11 06:33:16;;;;;;;77.10;35.10;;;;;;;1.79;69.95;98363.14;212863;1322;139191;-59
2021/12/11 06:38:23;;;;;;;74.00;35.00;;;;;;;1.71;69.84;98382.14;212790;1322;139063;-63
2021/12/11 06:43:26;;;;;;;79.50;35.50;;;;;;;1.69;70.06;98397.26;212375;1329;138991;-58
2021/12/11 06:48:29;;;;;;;76.50;34.90;;;;;;;1.68;69.95;98400.43;212926;1325;140172;-60
2021/12/11 06:53:47;;;;;;;79.00;36.90;;;;;;;1.71;69.97;98403.98;212389;1326;140083;-56
2021/12/11 06:58:51;;;;;;;154.40;78.20;;;;;;;1.83;70.42;98405.27;212979;1327;139630;-57
2021/12/11 07:03:57;;;;;;;74.70;37.10;;;;;;;2.10;70.72;98401.64;211956;1331;139043;-58
2021/12/11 07:09:02;;;;;;;;;;;;;;;2.15;69.98;98416.85;212310;1326;138796;-57
2021/12/11 07:14:06;;;;;;;241.80;135.50;;;;;;;2.07;69.81;98434.11;212724;1324;124909;-57
2021/12/11 07:19:10;;;;;;;82.60;39.40;;;;;;;2.13;70.17;98448.77;212875;1323;139811;-65
2021/12/11 07:24:15;;;;;;;79.00;38.30;;;;;;;2.14;69.70;98455.05;212628;1324;140634;-56
2021/12/11 07:29:19;;;;;;;86.00;39.50;;;;;;;2.07;69.58;98460.38;212919;1326;139278;-53
2021/12/11 07:34:23;;;;;;;87.00;41.30;;;;;;;2.03;69.67;98458.23;212136;1325;139507;-59
2021/12/11 07:39:26;;;;;;;82.70;39.40;;;;;;;2.04;69.88;98459.25;212535;1322;140509;-58
2021/12/11 07:44:30;;;;;;;79.10;37.10;;;;;;;2.11;69.71;98461.10;212499;1328;139640;-60
2021/12/11 07:49:33;;;;;;;74.90;35.80;;;;;;;2.10;69.61;98469.87;212830;1329;139563;-62
2021/12/11 07:54:36;;;;;;;80.10;37.10;;;;;;;2.06;69.44;98487.89;212283;1329;141263;-60
2021/12/11 07:59:40;;;;;;;76.70;36.10;;;;;;;2.03;69.53;98505.29;212071;1323;139559;-60
2021/12/11 08:04:43;;;;;;;81.40;41.10;;;;;;;1.96;69.43;98516.23;212354;1329;140490;-59
2021/12/11 08:09:46;;;;;;;90.80;43.00;;;;;;;1.95;69.69;98524.15;212700;1322;139265;-61
2021/12/11 08:14:53;;;;;;;77.50;38.40;;;;;;;2.00;69.72;98527.84;212153;1329;138833;-61
2021/12/11 08:19:56;;;;;;;78.00;38.20;;;;;;;1.95;69.57;98537.08;212012;1330;139646;-58
2021/12/11 08:24:59;;;;;;;79.10;38.60;;;;;;;1.91;69.36;98546.15;212102;1328;139990;-60
2021/12/11 08:30:04;;;;;;;70.70;35.50;;;;;;;1.91;69.53;98552.61;212084;1328;139846;-57
2021/12/11 08:35:10;;;;;;;70.90;34.10;;;;;;;1.99;69.59;98563.38;212740;1322;139038;-59
2021/12/11 08:40:19;;;;;;;71.30;36.30;;;;;;;2.06;69.64;98569.41;212472;1328;139005;-62
2021/12/11 08:45:33;;;;;;;72.00;37.40;;;;;;;2.14;69.62;98578.75;212611;1323;139218;-59
2021/12/11 08:50:36;;;;;;;65.60;34.10;;;;;;;2.19;69.69;98594.66;212495;1328;139338;-58
2021/12/11 08:55:45;;;;;;;82.10;38.90;;;;;;;2.30;70.20;98608.66;212187;1331;139640;-57
2021/12/11 09:01:02;;;;;;;76.90;35.80;;;;;;;2.53;70.21;98619.54;213170;1321;140602;-58
2021/12/11 09:06:28;;;;;;;69.10;34.10;;;;;;;2.55;69.82;98631.38;212738;1319;140505;-60
2021/12/11 09:11:40;;;;;;;69.90;36.80;;;;;;;2.62;69.53;98638.30;212235;1321;139628;-59
2021/12/11 09:16:51;;;;;;;67.30;34.50;;;;;;;2.65;69.46;98636.27;212334;1325;139336;-63
2021/12/11 09:22:05;;;;;;;67.10;34.00;;;;;;;2.62;69.24;98639.55;212584;1328;138626;-58
2021/12/11 09:27:14;;;;;;;64.90;33.00;;;;;;;2.58;69.07;98660.33;213374;1320;139738;-63
2021/12/11 09:32:24;;;;;;;68.60;36.50;;;;;;;2.58;69.36;98672.58;212692;1322;139394;-61
2021/12/11 09:37:29;;;;;;;66.50;34.20;;;;;;;2.67;69.38;98668.43;212976;1320;138503;-58
2021/12/11 09:42:31;;;;;;;68.70;35.30;;;;;;;2.68;69.42;98671.70;212920;1322;138496;-60
2021/12/11 09:47:41;;;;;;;62.30;33.00;;;;;;;2.69;69.34;98676.24;212325;1328;139244;-58
2021/12/11 09:52:46;;;;;;;67.70;34.90;;;;;;;2.72;69.40;98682.77;212654;1328;139361;-59
2021/12/11 09:57:54;;;;;;;75.50;39.20;;;;;;;2.73;69.25;98686.60;212698;1322;139258;-61
2021/12/11 10:03:00;;;;;;;75.10;37.60;;;;;;;2.84;70.05;98696.36;212954;1324;140822;-60
2021/12/11 10:13:30;;;;;;;71.80;36.80;;;;;;;2.96;69.45;98695.90;212746;1322;139755;-63
2021/12/11 10:18:34;;;;;;;176.20;97.70;;;;;;;2.99;69.21;98702.64;212850;1322;139600;-59
2021/12/11 10:23:39;;;;;;;68.60;35.70;;;;;;;3.04;69.36;98717.00;212708;1322;140130;-59
2021/12/11 10:28:51;;;;;;;65.10;35.20;;;;;;;3.12;69.44;98716.69;213031;1322;140448;-58
2021/12/11 10:33:57;;;;;;;64.50;32.90;;;;;;;3.16;69.05;98708.33;212327;1322;139133;-60
2021/12/11 10:39:06;;;;;;;58.80;29.10;;;;;;;3.15;68.85;98714.67;212997;1326;138806;-59
2021/12/11 10:44:32;;;;;;;57.40;30.10;;;;;;;3.11;68.71;98723.23;213354;1322;141278;-62
2021/12/11 10:49:39;;;;;;;55.40;30.10;;;;;;;3.07;68.62;98724.60;212451;1326;139889;-58
2021/12/11 10:54:43;;;;;;;64.40;33.50;;;;;;;3.01;68.62;98727.08;212253;1328;139314;-60
2021/12/11 10:59:50;;;;;;;61.90;32.00;;;;;;;3.07;68.72;98716.70;212012;1322;139692;-60
2021/12/11 11:05:07;;;;;;;84.70;37.30;;;;;;;3.14;68.70;98725.41;213057;1317;139305;-61
2021/12/11 11:10:17;;;;;;;69.20;34.90;;;;;;;3.24;69.13;98732.55;212519;1325;139125;-61
2021/12/11 11:15:23;;;;;;;102.20;42.00;;;;;;;3.31;68.87;98737.05;212247;1328;311521;-62
2021/12/11 11:20:31;;;;;;;82.90;37.60;;;;;;;5.70;81.78;98733.58;212860;1321;139703;-62
2021/12/11 11:25:41;;;;;;;47.80;27.70;;;;;;;8.40;78.25;98721.87;212673;1323;140591;-62
2021/12/11 11:30:49;;;;;;;49.70;28.40;;;;;;;7.35;68.97;98730.39;212893;1322;139282;-61
2021/12/11 11:35:53;;;;;;;51.40;30.70;;;;;;;6.36;67.01;98749.95;212534;1323;139259;-62
2021/12/11 11:41:01;;;;;;;56.70;30.00;;;;;;;5.70;66.95;98756.64;212247;1328;140099;-60
2021/12/11 11:46:06;;;;;;;51.30;30.50;;;;;;;5.12;66.48;98762.80;212836;1326;139138;-61
2021/12/11 11:51:16;;;;;;;52.90;31.30;;;;;;;4.59;66.58;98770.69;212297;1328;139552;-60
2021/12/11 11:56:23;;;;;;;54.90;30.30;;;;;;;4.27;67.03;98777.48;212911;1321;138697;-61
2021/12/11 12:01:32;;;;;;;56.10;31.50;;;;;;;4.06;67.09;98787.31;212593;1323;139906;-61
2021/12/11 12:06:36;;;;;;;57.20;31.30;;;;;;;3.85;67.20;98801.95;213074;1323;139410;-61
2021/12/11 12:11:41;;;;;;;59.00;29.20;;;;;;;3.72;67.46;98804.95;213072;1322;138847;-61
2021/12/11 12:16:46;;;;;;;54.90;32.30;;;;;;;3.58;67.47;98806.33;212657;1321;138835;-63
2021/12/11 12:21:52;;;;;;;;;;;;;;;3.54;67.89;98799.98;212424;1327;139007;-60
2021/12/11 12:26:55;;;;;;;52.10;29.10;;;;;;;3.41;67.51;98808.91;213540;1322;124779;-60
2021/12/11 12:32:07;;;;;;;58.00;31.50;;;;;;;3.27;67.84;98814.48;212536;1325;139136;-61
2021/12/11 12:37:11;;;;;;;62.50;31.20;;;;;;;3.23;67.91;98810.07;212735;1321;139696;-60
2021/12/11 12:42:20;;;;;;;60.10;31.90;;;;;;;3.29;68.17;98815.46;212622;1322;139902;-61
2021/12/11 12:47:29;;;;;;;64.50;33.50;;;;;;;3.43;68.51;98813.89;213178;1322;138756;-59
2021/12/11 12:52:36;;;;;;;56.70;32.50;;;;;;;3.48;68.25;98813.35;212160;1326;139592;-61
2021/12/11 12:57:42;;;;;;;62.20;35.80;;;;;;;3.44;67.95;98815.45;211982;1328;138910;-59
2021/12/11 13:02:47;;;;;;;379.50;221.60;;;;;;;3.46;68.54;98818.68;212209;1325;140497;-59
2021/12/11 13:08:11;;;;;;;74.50;41.10;;;;;;;3.53;68.53;98810.20;212217;1322;139845;-61
2021/12/11 13:13:17;;;;;;;66.10;34.60;;;;;;;3.48;68.13;98816.36;212855;1320;138954;-61
2021/12/11 13:18:26;;;;;;;62.70;33.80;;;;;;;3.38;68.04;98828.98;212228;1328;139574;-59
2021/12/11 13:23:32;;;;;;;63.50;35.80;;;;;;;3.29;68.16;98828.77;212607;1322;138777;-62
2021/12/11 13:28:43;;;;;;;64.40;34.70;;;;;;;3.27;68.12;98827.96;212028;1329;138854;-62
2021/12/11 13:33:47;;;;;;;71.70;37.50;;;;;;;3.25;68.26;98828.42;213182;1320;140563;-60
2021/12/11 13:38:51;;;;;;;74.90;40.80;;;;;;;3.32;68.85;98823.06;212200;1322;139869;-60
2021/12/11 13:43:54;;;;;;;73.60;40.40;;;;;;;3.49;68.75;98830.53;212364;1327;139453;-64
2021/12/11 13:48:58;;;;;;;68.30;38.10;;;;;;;3.52;68.73;98839.52;213115;1322;142035;-61
2021/12/11 13:54:01;;;;;;;72.30;39.10;;;;;;;3.53;68.65;98846.86;212028;1322;139184;-63
2021/12/11 13:59:07;;;;;;;71.00;39.60;;;;;;;3.49;68.23;98855.41;212641;1322;141313;-61
2021/12/11 14:04:12;;;;;;;68.60;38.70;;;;;;;3.44;68.19;98868.40;213234;1322;139082;-59
2021/12/11 14:09:21;;;;;;;73.60;36.50;;;;;;;3.40;68.04;98873.45;212505;1322;138615;-58
2021/12/11 14:14:24;;;;;;;68.90;36.50;;;;;;;5.33;77.60;98880.77;212658;1322;141042;-58
2021/12/11 14:19:27;;;;;;;89.10;51.50;;;;;;;8.00;76.38;98877.10;212821;1322;144739;-60
2021/12/11 14:24:32;;;;;;;63.30;37.10;;;;;;;9.06;71.38;98882.17;212215;1328;138912;-59
2021/12/11 14:29:35;;;;;;;83.80;46.60;;;;;;;8.99;65.97;98881.67;213268;1322;139900;-60
2021/12/11 14:34:38;;;;;;;72.90;41.50;;;;;;;7.86;63.51;98900.48;212516;1322;139425;-62
2021/12/11 14:39:47;;;;;;;73.10;42.40;;;;;;;6.84;63.07;98913.80;212041;1325;139436;-61
2021/12/11 14:44:53;;;;;;;77.80;42.60;;;;;;;5.98;63.31;98929.48;212257;1325;139331;-60
2021/12/11 14:49:56;;;;;;;80.70;44.60;;;;;;;5.37;63.97;98944.63;212453;1328;139704;-60
2021/12/11 14:55:04;;;;;;;82.90;47.70;;;;;;;4.94;64.27;98954.86;212180;1324;139286;-59
2021/12/11 15:00:11;;;;;;;83.20;45.80;;;;;;;4.56;64.72;98954.09;212420;1321;139894;-62
2021/12/11 15:05:21;;;;;;;83.80;45.20;;;;;;;4.23;64.83;98963.09;213533;1320;139032;-61
2021/12/11 15:10:30;;;;;;;86.80;44.70;;;;;;;3.99;65.22;98969.04;212460;1326;139501;-61
2021/12/11 15:15:50;;;;;;;88.50;46.00;;;;;;;3.79;65.84;98983.44;212871;1321;139482;-60
2021/12/11 15:20:59;;;;;;;87.40;44.50;;;;;;;3.64;65.92;98993.45;212350;1326;139706;-65
2021/12/11 15:26:02;;;;;;;87.60;45.20;;;;;;;3.59;66.55;98997.50;212844;1321;141301;-64
2021/12/11 15:31:11;;;;;;;102.90;56.30;;;;;;;3.51;66.36;99004.93;212830;1326;139394;-61
2021/12/11 15:36:16;;;;;;;91.00;47.10;;;;;;;3.50;66.98;99014.27;212439;1325;139385;-59
2021/12/11 15:41:21;;;;;;;145.30;83.70;;;;;;;3.48;66.68;99015.06;212767;1322;139376;-65
2021/12/11 15:46:25;;;;;;;90.90;47.80;;;;;;;3.75;67.92;99022.72;212864;1322;140085;-62
2021/12/11 15:51:33;;;;;;;87.30;47.40;;;;;;;3.83;67.20;99026.99;212493;1326;139059;-60
2021/12/11 15:56:38;;;;;;;91.30;47.60;;;;;;;3.72;66.96;99022.66;212577;1326;138957;-60
2021/12/11 16:01:44;;;;;;;88.00;48.10;;;;;;;3.57;66.81;99025.46;212738;1322;138715;-62
2021/12/11 16:06:48;;;;;;;92.30;49.60;;;;;;;3.46;67.00;99026.50;212338;1326;139755;-58
2021/12/11 16:11:55;;;;;;;106.30;55.70;;;;;;;3.43;67.18;99041.55;212901;1322;139244;-58
2021/12/11 16:17:03;;;;;;;102.90;54.70;;;;;;;3.37;67.16;99051.56;212454;1322;141456;-66
2021/12/11 16:22:13;;;;;;;161.30;90.00;;;;;;;3.36;67.84;99065.77;212723;1321;139073;-66
2021/12/11 16:27:16;;;;;;;128.10;63.90;;;;;;;3.57;68.30;99078.59;212735;1322;139342;-59
2021/12/11 16:32:19;;;;;;;112.80;59.70;;;;;;;3.55;67.42;99081.13;212358;1322;141623;-66
2021/12/11 16:37:32;;;;;;;125.60;60.70;;;;;;;3.38;67.32;99088.51;212116;1322;139411;-64
2021/12/11 16:42:37;;;;;;;132.10;62.80;;;;;;;3.29;67.38;99101.61;213027;1323;138725;-59
2021/12/11 16:47:42;;;;;;;118.80;60.10;;;;;;;3.62;68.89;99104.58;212420;1322;139837;-62
2021/12/11 16:52:46;;;;;;;115.50;58.90;;;;;;;3.61;67.75;99115.67;212518;1322;139394;-62
2021/12/11 16:57:49;;;;;;;113.70;58.70;;;;;;;3.55;67.68;99124.98;212525;1321;139062;-70
2021/12/11 17:02:53;;;;;;;115.00;58.60;;;;;;;3.47;67.52;99135.40;212778;1325;139447;-61
2021/12/11 17:07:57;;;;;;;214.70;111.50;;;;;;;3.42;67.76;99138.53;212008;1331;139580;-61
2021/12/11 17:13:05;;;;;;;120.10;59.70;;;;;;;3.50;68.17;99137.57;212993;1323;140636;-63
2021/12/11 17:18:11;;;;;;;109.90;57.10;;;;;;;3.40;67.68;99142.63;212375;1322;141317;-65
2021/12/11 17:23:14;;;;;;;118.60;57.30;;;;;;;3.31;67.71;99147.45;212183;1330;140075;-66
2021/12/11 17:28:22;;;;;;;106.80;55.60;;;;;;;3.25;67.52;99150.81;212892;1327;139757;-61
2021/12/11 17:33:26;;;;;;;112.20;55.20;;;;;;;3.13;67.77;99157.29;213061;1323;139627;-66
2021/12/11 17:38:29;;;;;;;118.30;60.10;;;;;;;3.08;67.84;99163.59;212867;1322;139227;-62
2021/12/11 17:43:37;;;;;;;118.80;58.50;;;;;;;3.08;68.13;99176.73;212277;1325;139859;-64
2021/12/11 17:48:40;;;;;;;117.60;60.60;;;;;;;3.12;68.29;99178.39;212326;1322;139965;-60
2021/12/11 17:53:44;;;;;;;122.50;64.20;;;;;;;3.17;68.41;99188.59;212855;1322;139646;-61
2021/12/11 17:58:52;;;;;;;209.60;114.20;;;;;;;3.23;68.34;99195.42;212371;1327;139504;-61
2021/12/11 18:04:03;;;;;;;132.80;69.50;;;;;;;3.60;69.78;99192.85;212149;1328;138953;-61
2021/12/11 18:09:10;;;;;;;131.50;65.70;;;;;;;3.71;68.67;99200.05;213251;1322;139787;-60
2021/12/11 18:14:28;;;;;;;124.60;64.40;;;;;;;3.63;68.15;99212.77;213121;1326;142878;-60
2021/12/11 18:19:48;;;;;;;119.50;63.50;;;;;;;3.53;68.04;99219.38;213051;1325;139893;-67
2021/12/11 18:24:54;;;;;;;125.70;64.40;;;;;;;3.47;68.14;99226.97;212210;1329;140971;-61
2021/12/11 18:29:59;;;;;;;131.60;68.20;;;;;;;3.41;68.02;99230.83;212620;1326;139465;-63
2021/12/11 18:35:06;;;;;;;134.10;67.30;;;;;;;3.37;68.14;99236.04;212893;1323;139414;-65
2021/12/11 18:40:19;;;;;;;146.50;68.40;;;;;;;3.28;68.08;99231.19;212660;1322;140298;-59
2021/12/11 18:45:30;;;;;;;128.20;62.80;;;;;;;3.26;68.14;99228.95;212327;1328;139965;-65
2021/12/11 18:50:35;;;;;;;131.30;67.20;;;;;;;3.32;68.50;99233.01;212661;1328;140091;-64
2021/12/11 18:55:44;;;;;;;135.80;67.90;;;;;;;3.41;68.47;99238.34;212499;1323;139830;-60
2021/12/11 19:00:58;;;;;;;162.60;86.00;;;;;;;3.43;68.69;99242.16;211998;1330;138842;-61
2021/12/11 19:06:05;;;;;;;129.40;65.10;;;;;;;3.66;69.48;99242.16;212243;1325;139711;-61
2021/12/11 19:11:19;;;;;;;134.00;65.80;;;;;;;3.76;68.73;99250.27;212356;1328;139176;-59
2021/12/11 19:16:23;;;;;;;124.30;64.00;;;;;;;3.67;68.30;99257.91;212338;1324;175970;-65
2021/12/11 19:21:31;;;;;;;222.10;113.50;;;;;;;3.60;68.74;99274.09;212494;1328;139032;-62
2021/12/11 19:26:36;;;;;;;128.70;64.80;;;;;;;3.83;69.13;99279.54;212243;1328;139542;-59
2021/12/11 19:31:45;;;;;;;116.20;59.40;;;;;;;3.81;68.45;99293.63;213176;1323;139516;-62
2021/12/11 19:36:49;;;;;;;121.70;62.50;;;;;;;3.69;68.21;99302.08;212863;1326;140721;-61
2021/12/11 19:41:53;;;;;;;130.10;63.80;;;;;;;3.56;68.38;99309.98;212582;1323;139634;-60
2021/12/11 19:46:59;;;;;;;113.30;54.70;;;;;;;3.51;68.18;99321.52;211937;1322;139649;-60
2021/12/11 19:52:07;;;;;;;119.90;57.10;;;;;;;3.47;68.24;99331.48;212539;1322;139735;-62
2021/12/11 19:57:14;;;;;;;117.80;59.50;;;;;;;3.45;68.29;99335.73;213016;1322;139328;-57
2021/12/11 20:02:21;;;;;;;117.80;58.10;;;;;;;3.49;68.42;99342.83;212908;1322;139699;-59
2021/12/11 20:07:25;;;;;;;118.80;59.70;;;;;;;3.48;68.09;99351.27;212707;1322;139270;-59
2021/12/11 20:12:45;;;;;;;108.70;56.40;;;;;;;3.45;68.20;99363.64;212374;1322;139183;-59
2021/12/11 20:17:48;;;;;;;109.80;57.80;;;;;;;3.42;68.20;99368.08;212520;1321;139234;-58
2021/12/11 20:22:54;;;;;;;108.80;57.70;;;;;;;3.44;68.14;99371.21;212251;1325;139842;-65
2021/12/11 20:28:00;;;;;;;114.90;57.80;;;;;;;3.45;68.25;99363.11;212526;1326;139947;-60
2021/12/11 20:33:06;;;;;;;112.90;56.50;;;;;;;3.43;68.21;99362.83;212365;1328;138812;-63
2021/12/11 20:38:12;;;;;;;115.00;55.60;;;;;;;3.37;68.15;99361.59;212486;1322;140342;-66
2021/12/11 20:43:16;;;;;;;102.40;54.20;;;;;;;3.35;68.24;99370.21;212704;1325;139718;-64
2021/12/11 20:48:20;;;;;;;110.20;56.30;;;;;;;3.43;68.31;99385.45;212311;1327;140124;-59
2021/12/11 20:53:30;;;;;;;106.20;54.00;;;;;;;3.48;68.21;99393.90;212317;1322;139680;-59
2021/12/11 20:58:34;;;;;;;111.10;56.70;;;;;;;3.49;68.24;99399.83;212621;1324;139314;-60
2021/12/11 21:03:39;;;;;;;110.20;57.50;;;;;;;3.53;68.31;99402.68;212465;1322;139111;-64
2021/12/11 21:08:47;;;;;;;101.80;53.30;;;;;;;3.61;68.25;99403.19;212183;1329;139350;-61
2021/12/11 21:13:53;;;;;;;116.30;58.70;;;;;;;3.61;68.18;99415.80;212539;1326;140094;-66
2021/12/11 21:19:01;;;;;;;120.20;61.00;;;;;;;3.55;67.84;99428.41;212267;1329;138865;-60
2021/12/11 21:24:17;;;;;;;121.00;60.30;;;;;;;3.47;68.01;99446.02;212500;1325;139467;-60
2021/12/11 21:29:27;;;;;;;114.90;58.70;;;;;;;3.40;67.84;99457.06;213391;1328;138950;-61
2021/12/11 21:34:32;;;;;;;117.60;57.90;;;;;;;3.38;67.95;99458.86;212263;1328;138767;-61
2021/12/11 21:39:44;;;;;;;126.60;62.90;;;;;;;3.34;67.87;99461.27;212569;1328;139141;-62
2021/12/11 21:44:47;;;;;;;117.60;59.40;;;;;;;3.33;68.05;99478.47;212602;1326;140068;-61
2021/12/11 21:49:56;;;;;;;115.60;60.10;;;;;;;3.34;67.75;99484.77;212375;1329;139919;-61
2021/12/11 21:55:06;;;;;;;100.30;54.30;;;;;;;3.38;67.88;99491.33;212097;1329;139138;-61
2021/12/11 22:00:13;;;;;;;111.20;56.60;;;;;;;3.41;67.76;99488.27;212090;1328;140891;-61
2021/12/11 22:05:50;;;;;;;102.40;53.30;;;;;;;3.43;67.85;99478.92;212361;1322;139182;-63
2021/12/11 22:10:59;;;;;;;97.60;52.10;;;;;;;3.38;67.55;99486.59;212667;1328;139370;-61
2021/12/11 22:16:10;;;;;;;95.90;50.20;;;;;;;3.31;67.60;99485.90;212910;1326;139158;-64
2021/12/11 22:21:19;;;;;;;101.30;53.40;;;;;;;3.23;67.43;99492.04;212522;1328;138957;-66
2021/12/11 22:26:41;;;;;;;100.30;51.70;;;;;;;3.17;67.46;99492.38;213146;1328;139116;-59
2021/12/11 22:31:48;;;;;;;96.30;52.70;;;;;;;3.18;68.42;99492.18;212727;1328;139148;-61
2021/12/11 22:36:54;;;;;;;107.20;51.80;;;;;;;4.21;70.46;99490.63;212414;1328;139378;-62
2021/12/11 22:42:03;;;;;;;112.90;54.40;;;;;;;4.22;67.85;99489.19;212412;1326;140248;-65
2021/12/11 22:47:32;;;;;;;98.00;52.40;;;;;;;4.03;67.01;99491.52;212543;1324;142252;-60
2021/12/11 22:52:35;;;;;;;96.40;48.80;;;;;;;3.84;66.77;99495.72;212213;1328;138785;-61
2021/12/11 22:57:39;;;;;;;80.20;41.50;;;;;;;3.64;66.56;99485.39;212406;1325;139282;-63
2021/12/11 23:02:42;;;;;;;68.70;36.30;;;;;;;3.48;66.46;99483.70;213171;1323;139215;-61
2021/12/11 23:07:49;;;;;;;62.20;33.00;;;;;;;3.38;66.42;99482.38;212144;1328;139290;-64
2021/12/11 23:12:58;;;;;;;58.80;31.00;;;;;;;3.32;66.38;99478.32;212758;1327;139954;-61
2021/12/11 23:18:07;;;;;;;58.00;30.40;;;;;;;3.29;66.43;99475.42;213050;1322;139614;-62